Time;durP1;ratioP1;P1;durP2;ratioP2;P2;SDS_P1;SDS_P2;PMS_P1;PMS_P2;Temp;Humidity;BMP_temperature;BMP_pressure;BME280_temperature;BME280_humidity;BME280_pressure;Samples;Min_cycle;Max_cycle;Signal;HPM_P1;HPM_P2
2021/11/25 00:00:52;;;;;;;1.35;0.90;;;;;;;;;;4991136;28;20182;-80
2021/11/25 00:03:18;;;;;;;1.00;1.00;;;;;;;;;;4992935;28;21764;-79
2021/11/25 00:05:44;;;;;;;0.80;0.80;;;;;;;;;;4994192;28;20399;-79
2021/11/25 00:08:10;;;;;;;5.00;1.95;;;;;;;;;;4990443;28;20690;-79
2021/11/25 00:10:38;;;;;;;0.80;0.77;;;;;;;;;;4995694;28;20229;-79
2021/11/25 00:13:05;;;;;;;0.80;0.60;;;;;;;;;;5001257;28;20184;-79
2021/11/25 00:15:31;;;;;;;2.05;1.95;;;;;;;;;;5026640;28;20219;-78
2021/11/25 00:17:58;;;;;;;1.05;0.90;;;;;;;;;;5013567;28;20227;-78
2021/11/25 00:20:24;;;;;;;0.80;0.70;;;;;;;;;;5005971;28;20178;-80
2021/11/25 00:22:50;;;;;;;0.80;0.73;;;;;;;;;;5000607;28;20191;-79
2021/11/25 00:25:16;;;;;;;0.80;0.70;;;;;;;;;;4996561;28;20187;-80
2021/11/25 00:27:43;;;;;;;0.80;0.70;;;;;;;;;;5003245;28;20190;-80
2021/11/25 00:30:10;;;;;;;0.80;0.70;;;;;;;;;;5013827;28;20215;-80
2021/11/25 00:32:36;;;;;;;3.10;2.17;;;;;;;;;;5012040;28;20613;-81
2021/11/25 00:35:02;;;;;;;1.52;1.42;;;;;;;;;;4997733;28;20179;-80
2021/11/25 00:37:28;;;;;;;0.80;0.70;;;;;;;;;;5007579;28;20229;-79
2021/11/25 00:39:54;;;;;;;0.80;0.70;;;;;;;;;;5008218;28;20194;-81
2021/11/25 00:42:20;;;;;;;0.80;0.77;;;;;;;;;;5016654;28;20179;-81
2021/11/25 00:44:46;;;;;;;1.65;1.55;;;;;;;;;;5002002;28;20179;-80
2021/11/25 00:47:12;;;;;;;0.80;0.70;;;;;;;;;;4998981;28;20207;-80
2021/11/25 00:49:38;;;;;;;1.33;1.23;;;;;;;;;;5013768;28;20194;-80
2021/11/25 00:52:04;;;;;;;1.00;0.93;;;;;;;;;;5002394;28;20191;-80
2021/11/25 00:54:30;;;;;;;1.27;1.17;;;;;;;;;;5003919;28;20743;-80
2021/11/25 00:56:56;;;;;;;1.00;0.93;;;;;;;;;;5002864;28;20255;-79
2021/11/25 00:59:22;;;;;;;0.93;0.93;;;;;;;;;;5012769;28;20187;-81
2021/11/25 01:01:48;;;;;;;0.80;0.65;;;;;;;;;;5017667;28;20245;-79
2021/11/25 01:04:14;;;;;;;1.00;1.00;;;;;;;;;;5002784;28;20191;-80
2021/11/25 01:06:40;;;;;;;0.80;0.70;;;;;;;;;;5004815;28;20203;-79
2021/11/25 01:09:06;;;;;;;1.08;0.98;;;;;;;;;;5019447;28;20188;-80
2021/11/25 01:11:32;;;;;;;0.80;0.60;;;;;;;;;;4998218;28;20246;-81
2021/11/25 01:13:58;;;;;;;0.85;0.85;;;;;;;;;;5019051;28;20191;-80
2021/11/25 01:16:25;;;;;;;0.80;0.70;;;;;;;;;;5001435;28;20216;-81
2021/11/25 01:18:51;;;;;;;0.80;0.60;;;;;;;;;;5017686;28;20184;-80
2021/11/25 01:21:17;;;;;;;0.80;0.60;;;;;;;;;;5003375;28;20247;-81
2021/11/25 01:23:43;;;;;;;0.80;0.70;;;;;;;;;;5004514;28;20207;-79
2021/11/25 01:26:09;;;;;;;0.80;0.80;;;;;;;;;;5020533;28;20215;-80
2021/11/25 01:28:36;;;;;;;0.80;0.70;;;;;;;;;;5003658;28;20219;-80
2021/11/25 01:31:03;;;;;;;1.35;1.25;;;;;;;;;;5003748;28;20187;-80
2021/11/25 01:33:30;;;;;;;0.80;0.70;;;;;;;;;;5004913;28;20283;-80
2021/11/25 01:35:56;;;;;;;0.80;0.70;;;;;;;;;;5001487;28;20247;-79
2021/11/25 01:38:22;;;;;;;0.80;0.70;;;;;;;;;;5002531;28;20950;-81
2021/11/25 01:40:49;;;;;;;0.80;0.60;;;;;;;;;;5001926;28;20245;-80
2021/11/25 01:43:20;;;;;;;2.35;2.17;;;;;;;;;;5000547;28;20181;-80
2021/11/25 01:45:48;;;;;;;0.80;0.80;;;;;;;;;;4998091;28;20240;-81
2021/11/25 01:48:13;;;;;;;0.80;0.70;;;;;;;;;;5001673;28;20195;-79
2021/11/25 01:50:40;;;;;;;0.80;0.70;;;;;;;;;;5003396;28;20195;-81
2021/11/25 01:53:06;;;;;;;0.80;0.60;;;;;;;;;;5018114;28;20251;-81
2021/11/25 01:55:32;;;;;;;4.45;2.53;;;;;;;;;;5004859;28;20261;-80
2021/11/25 01:57:58;;;;;;;0.93;0.93;;;;;;;;;;5004066;28;20276;-81
2021/11/25 02:00:29;;;;;;;0.80;0.75;;;;;;;;;;4993866;28;20196;-80
2021/11/25 02:02:55;;;;;;;0.80;0.60;;;;;;;;;;5003571;28;20194;-80
2021/11/25 02:05:21;;;;;;;1.17;1.08;;;;;;;;;;5003311;28;20183;-80
2021/11/25 02:07:47;;;;;;;0.80;0.70;;;;;;;;;;4999761;28;20194;-81
2021/11/25 02:10:13;;;;;;;0.80;0.60;;;;;;;;;;5016597;28;20203;-81
2021/11/25 02:12:40;;;;;;;0.90;0.90;;;;;;;;;;5003864;28;20267;-80
2021/11/25 02:15:07;;;;;;;1.60;1.50;;;;;;;;;;5002276;28;20243;-80
2021/11/25 02:17:34;;;;;;;0.80;0.60;;;;;;;;;;5002650;28;20219;-80
2021/11/25 02:20:01;;;;;;;1.15;1.05;;;;;;;;;;5017557;28;20183;-80
2021/11/25 02:22:27;;;;;;;0.80;0.70;;;;;;;;;;5002157;28;20283;-80
2021/11/25 02:24:53;;;;;;;1.55;1.45;;;;;;;;;;5000267;28;20189;-80
2021/11/25 02:27:19;;;;;;;1.70;1.40;;;;;;;;;;5057045;23;20252;-76
2021/11/25 02:29:45;;;;;;;1.13;0.90;;;;;;;;;;5037125;28;20198;-76
2021/11/25 02:32:11;;;;;;;0.80;0.60;;;;;;;;;;5019996;28;20225;-76
2021/11/25 02:34:37;;;;;;;0.90;0.90;;;;;;;;;;5031694;28;20178;-76
2021/11/25 02:37:04;;;;;;;1.90;1.38;;;;;;;;;;5031655;28;20237;-76
2021/11/25 02:39:30;;;;;;;1.08;0.98;;;;;;;;;;5031799;28;20170;-76
2021/11/25 02:41:56;;;;;;;0.80;0.60;;;;;;;;;;5031353;28;20663;-76
2021/11/25 02:44:22;;;;;;;0.80;0.70;;;;;;;;;;5031243;28;20676;-76
2021/11/25 02:46:51;;;;;;;0.80;0.70;;;;;;;;;;5031822;28;20213;-76
2021/11/25 02:49:17;;;;;;;0.80;0.60;;;;;;;;;;5032715;28;20240;-76
2021/11/25 02:51:43;;;;;;;1.65;1.55;;;;;;;;;;5013341;28;20712;-76
2021/11/25 02:54:09;;;;;;;1.00;0.90;;;;;;;;;;5031682;28;20241;-76
2021/11/25 02:56:35;;;;;;;0.80;0.60;;;;;;;;;;5035904;28;20229;-76
2021/11/25 02:59:01;;;;;;;2.10;1.90;;;;;;;;;;5041963;28;20300;-76
2021/11/25 03:01:36;;;;;;;0.80;0.60;;;;;;;;;;5030871;28;20595;-77
2021/11/25 03:04:03;;;;;;;0.80;0.60;;;;;;;;;;5030187;28;20181;-76
2021/11/25 03:06:30;;;;;;;0.77;0.60;;;;;;;;;;5028999;28;20226;-75
2021/11/25 03:08:56;;;;;;;0.80;0.70;;;;;;;;;;5030754;28;20265;-76
2021/11/25 03:11:24;;;;;;;0.80;0.60;;;;;;;;;;5025943;28;20263;-75
2021/11/25 03:13:52;;;;;;;1.63;1.52;;;;;;;;;;5031996;28;20218;-76
2021/11/25 03:16:19;;;;;;;4.28;1.33;;;;;;;;;;5030882;28;20213;-76
2021/11/25 03:18:45;;;;;;;1.00;0.90;;;;;;;;;;5032099;28;20225;-76
2021/11/25 03:21:17;;;;;;;1.23;1.13;;;;;;;;;;5030627;28;20389;-76
2021/11/25 03:23:44;;;;;;;0.80;0.70;;;;;;;;;;5030962;28;20174;-76
2021/11/25 03:26:10;;;;;;;1.10;1.00;;;;;;;;;;5029646;28;20256;-76
2021/11/25 03:28:42;;;;;;;0.80;0.60;;;;;;;;;;5043216;28;20749;-77
2021/11/25 03:31:08;;;;;;;0.80;0.70;;;;;;;;;;5030982;28;20193;-76
2021/11/25 03:33:34;;;;;;;0.80;0.70;;;;;;;;;;5031132;28;20193;-76
2021/11/25 03:36:01;;;;;;;0.80;0.70;;;;;;;;;;5028875;28;20272;-76
2021/11/25 03:38:28;;;;;;;0.80;0.70;;;;;;;;;;5014234;28;20182;-76
2021/11/25 03:40:54;;;;;;;0.93;0.93;;;;;;;;;;5027279;28;20186;-76
2021/11/25 03:43:20;;;;;;;0.80;0.60;;;;;;;;;;5031922;28;20174;-76
2021/11/25 03:45:46;;;;;;;0.80;0.70;;;;;;;;;;5028841;28;20241;-76
2021/11/25 03:48:12;;;;;;;1.60;1.45;;;;;;;;;;5030701;28;20183;-75
2021/11/25 03:50:38;;;;;;;1.30;1.20;;;;;;;;;;5030580;28;20255;-76
2021/11/25 03:53:05;;;;;;;1.35;1.13;;;;;;;;;;5031333;28;20261;-76
2021/11/25 03:55:31;;;;;;;0.90;0.90;;;;;;;;;;5031219;28;20190;-76
2021/11/25 03:57:57;;;;;;;1.52;1.10;;;;;;;;;;5042880;28;20210;-76
2021/11/25 04:00:24;;;;;;;0.80;0.70;;;;;;;;;;5033832;28;20598;-76
2021/11/25 04:02:51;;;;;;;0.80;0.70;;;;;;;;;;5030733;28;20178;-76
2021/11/25 04:05:17;;;;;;;1.15;1.05;;;;;;;;;;5029864;28;20190;-76
2021/11/25 04:07:44;;;;;;;1.17;1.08;;;;;;;;;;5013255;28;20214;-76
2021/11/25 04:10:10;;;;;;;1.83;1.70;;;;;;;;;;5021531;28;20706;-76
2021/11/25 04:12:36;;;;;;;0.80;0.70;;;;;;;;;;5017959;28;20728;-76
2021/11/25 04:15:04;;;;;;;0.80;0.70;;;;;;;;;;5013923;28;20179;-76
2021/11/25 04:17:30;;;;;;;0.80;0.60;;;;;;;;;;5028463;28;20206;-76
2021/11/25 04:19:56;;;;;;;0.80;0.70;;;;;;;;;;5031335;28;20660;-76
2021/11/25 04:22:22;;;;;;;0.80;0.60;;;;;;;;;;5031483;28;20201;-76
2021/11/25 04:24:49;;;;;;;0.80;0.60;;;;;;;;;;5010561;28;20570;-76
2021/11/25 04:27:15;;;;;;;0.73;0.60;;;;;;;;;;5037008;28;20591;-76
2021/11/25 04:29:44;;;;;;;0.77;0.70;;;;;;;;;;5041810;28;20174;-76
2021/11/25 04:37:42;;;;;;;0.80;0.60;;;;;;;;;;5029301;28;20272;-76
2021/11/25 04:40:09;;;;;;;0.80;0.75;;;;;;;;;;5031041;28;20220;-77
2021/11/25 04:42:35;;;;;;;1.13;1.02;;;;;;;;;;5030319;28;20216;-76
2021/11/25 04:45:01;;;;;;;0.95;0.95;;;;;;;;;;5030667;28;20186;-75
2021/11/25 04:47:27;;;;;;;0.80;0.60;;;;;;;;;;5027468;28;20237;-76
2021/11/25 04:49:53;;;;;;;0.80;0.80;;;;;;;;;;5030764;28;20194;-76
2021/11/25 04:52:19;;;;;;;1.15;1.05;;;;;;;;;;5030943;28;20240;-76
2021/11/25 04:54:45;;;;;;;2.10;2.00;;;;;;;;;;5028432;28;20194;-76
2021/11/25 04:57:11;;;;;;;0.80;0.60;;;;;;;;;;5030987;28;20723;-76
2021/11/25 04:59:37;;;;;;;0.77;0.60;;;;;;;;;;5036929;28;20248;-76
2021/11/25 05:02:03;;;;;;;0.80;0.70;;;;;;;;;;5029755;28;20402;-76
2021/11/25 05:04:29;;;;;;;1.00;0.90;;;;;;;;;;5029374;28;20194;-76
2021/11/25 05:06:55;;;;;;;0.82;0.82;;;;;;;;;;5012407;28;20289;-76
2021/11/25 05:09:21;;;;;;;2.00;1.40;;;;;;;;;;5031019;28;20214;-76
2021/11/25 05:11:47;;;;;;;1.42;1.33;;;;;;;;;;5030734;28;20551;-76
2021/11/25 05:14:13;;;;;;;0.80;0.70;;;;;;;;;;5030679;28;20183;-76
2021/11/25 05:16:39;;;;;;;1.13;1.02;;;;;;;;;;5029882;28;20607;-76
2021/11/25 05:19:05;;;;;;;0.80;0.60;;;;;;;;;;5030447;28;20185;-76
2021/11/25 05:21:31;;;;;;;0.70;0.60;;;;;;;;;;5030959;28;20182;-76
2021/11/25 05:23:57;;;;;;;0.80;0.65;;;;;;;;;;5031137;28;20229;-76
2021/11/25 05:26:23;;;;;;;1.27;1.17;;;;;;;;;;5033558;28;20217;-76
2021/11/25 05:28:49;;;;;;;1.27;1.17;;;;;;;;;;5045856;28;20186;-76
2021/11/25 05:31:16;;;;;;;0.90;0.90;;;;;;;;;;5044381;28;20185;-76
2021/11/25 05:33:42;;;;;;;4.00;1.77;;;;;;;;;;5031036;28;20194;-75
2021/11/25 05:36:08;;;;;;;0.77;0.70;;;;;;;;;;5029813;28;20206;-76
2021/11/25 05:38:34;;;;;;;0.70;0.60;;;;;;;;;;5032612;28;20167;-76
2021/11/25 05:41:00;;;;;;;0.80;0.65;;;;;;;;;;5030822;28;20213;-76
2021/11/25 05:43:26;;;;;;;1.52;1.30;;;;;;;;;;5034152;28;20186;-76
2021/11/25 05:45:54;;;;;;;1.38;1.27;;;;;;;;;;5016007;28;20189;-76
2021/11/25 05:48:20;;;;;;;7.28;1.98;;;;;;;;;;5034364;28;20166;-76
2021/11/25 05:50:46;;;;;;;1.02;1.00;;;;;;;;;;5033888;28;20187;-76
2021/11/25 05:53:18;;;;;;;0.70;0.70;;;;;;;;;;5034300;28;20653;-75
2021/11/25 05:55:44;;;;;;;0.80;0.68;;;;;;;;;;5031246;28;20232;-76
2021/11/25 05:58:10;;;;;;;0.70;0.68;;;;;;;;;;5034873;28;20183;-76
2021/11/25 06:00:36;;;;;;;0.80;0.70;;;;;;;;;;5041946;28;20183;-76
2021/11/25 06:03:02;;;;;;;2.60;2.40;;;;;;;;;;5034375;28;20178;-76
2021/11/25 06:05:28;;;;;;;0.70;0.70;;;;;;;;;;5033508;28;20253;-76
2021/11/25 06:07:54;;;;;;;0.75;0.70;;;;;;;;;;5032269;28;20190;-75
2021/11/25 06:10:22;;;;;;;0.80;0.80;;;;;;;;;;5025633;28;20174;-76
2021/11/25 06:12:48;;;;;;;0.70;0.60;;;;;;;;;;5034024;28;20236;-75
2021/11/25 06:15:15;;;;;;;3.08;2.88;;;;;;;;;;5032382;28;20182;-76
2021/11/25 06:17:41;;;;;;;0.98;0.88;;;;;;;;;;5032666;28;20206;-73
2021/11/25 06:20:11;;;;;;;0.80;0.70;;;;;;;;;;5033719;28;20189;-75
2021/11/25 06:22:37;;;;;;;0.70;0.60;;;;;;;;;;5033595;28;20455;-76
2021/11/25 06:25:03;;;;;;;0.80;0.80;;;;;;;;;;5033478;28;20178;-75
2021/11/25 06:27:29;;;;;;;2.47;1.85;;;;;;;;;;5033321;28;20554;-75
2021/11/25 06:29:55;;;;;;;1.30;1.20;;;;;;;;;;5052350;28;20264;-74
2021/11/25 06:32:21;;;;;;;1.23;1.17;;;;;;;;;;5047744;28;20420;-74
2021/11/25 06:34:47;;;;;;;0.70;0.60;;;;;;;;;;5033336;28;20950;-75
2021/11/25 06:37:13;;;;;;;1.60;1.50;;;;;;;;;;5032821;28;20471;-75
2021/11/25 06:39:39;;;;;;;1.63;1.40;;;;;;;;;;5033588;28;20606;-75
2021/11/25 06:42:05;;;;;;;1.55;1.45;;;;;;;;;;5032391;28;20444;-75
2021/11/25 06:44:31;;;;;;;0.80;0.80;;;;;;;;;;5033511;28;20186;-75
2021/11/25 06:46:58;;;;;;;0.70;0.70;;;;;;;;;;5032796;28;20233;-75
2021/11/25 06:49:24;;;;;;;1.75;1.65;;;;;;;;;;5033236;28;20179;-74
2021/11/25 06:51:50;;;;;;;1.67;1.58;;;;;;;;;;5033128;28;20232;-76
2021/11/25 06:54:16;;;;;;;0.80;0.70;;;;;;;;;;5033264;28;20208;-74
2021/11/25 06:56:42;;;;;;;1.15;1.05;;;;;;;;;;5038043;28;20220;-75
2021/11/25 06:59:08;;;;;;;2.03;1.13;;;;;;;;;;5036896;28;20600;-75
2021/11/25 07:01:34;;;;;;;1.55;1.45;;;;;;;;;;5040685;28;20232;-74
2021/11/25 07:04:00;;;;;;;2.17;2.08;;;;;;;;;;5032771;28;20205;-75
2021/11/25 07:06:26;;;;;;;1.38;1.35;;;;;;;;;;5021507;28;20214;-75
2021/11/25 07:08:52;;;;;;;0.80;0.60;;;;;;;;;;5045287;28;20182;-76
2021/11/25 07:11:18;;;;;;;0.80;0.80;;;;;;;;;;5053017;28;20599;-75
2021/11/25 07:13:44;;;;;;;0.82;0.82;;;;;;;;;;5053026;28;20408;-74
2021/11/25 07:16:10;;;;;;;0.97;0.87;;;;;;;;;;5052319;28;21298;-75
2021/11/25 07:18:36;;;;;;;6.75;4.43;;;;;;;;;;5052706;28;20479;-75
2021/11/25 07:21:02;;;;;;;1.52;1.45;;;;;;;;;;5046199;28;20174;-75
2021/11/25 07:23:28;;;;;;;0.80;0.68;;;;;;;;;;5030953;28;20554;-75
2021/11/25 07:25:54;;;;;;;1.80;1.70;;;;;;;;;;5029286;28;20205;-74
2021/11/25 07:28:21;;;;;;;0.80;0.70;;;;;;;;;;5032217;28;20220;-75
2021/11/25 07:30:47;;;;;;;0.80;0.80;;;;;;;;;;5032345;28;20170;-75
2021/11/25 07:33:13;;;;;;;1.27;1.17;;;;;;;;;;5032417;28;20185;-75
2021/11/25 07:35:43;;;;;;;1.27;1.17;;;;;;;;;;5032531;28;20175;-76
2021/11/25 07:38:09;;;;;;;0.80;0.60;;;;;;;;;;5042292;28;20231;-74
2021/11/25 07:40:35;;;;;;;1.52;1.10;;;;;;;;;;5052368;28;20743;-75
2021/11/25 07:43:02;;;;;;;3.65;1.50;;;;;;;;;;5052463;28;20204;-75
2021/11/25 07:45:31;;;;;;;1.38;1.27;;;;;;;;;;5037089;28;20542;-75
2021/11/25 07:47:57;;;;;;;1.05;1.05;;;;;;;;;;5031477;28;20190;-75
2021/11/25 07:50:26;;;;;;;2.78;2.58;;;;;;;;;;5031399;28;20252;-75
2021/11/25 07:52:52;;;;;;;0.80;0.60;;;;;;;;;;5031339;28;20174;-75
2021/11/25 07:55:19;;;;;;;0.80;0.80;;;;;;;;;;5032135;28;20193;-75
2021/11/25 07:57:46;;;;;;;0.80;0.80;;;;;;;;;;5029216;28;20272;-75
2021/11/25 08:00:13;;;;;;;1.35;1.25;;;;;;;;;;5010624;28;20183;-75
2021/11/25 08:02:39;;;;;;;0.85;0.85;;;;;;;;;;5027489;28;20182;-75
2021/11/25 08:05:06;;;;;;;1.65;1.38;;;;;;;;;;5031701;28;20193;-76
2021/11/25 08:07:32;;;;;;;0.93;0.93;;;;;;;;;;5028060;28;20206;-75
2021/11/25 08:09:58;;;;;;;1.65;1.08;;;;;;;;;;5028004;28;20593;-76
2021/11/25 08:12:24;;;;;;;0.80;0.70;;;;;;;;;;5029623;28;20248;-75
2021/11/25 08:14:50;;;;;;;1.90;1.80;;;;;;;;;;5030372;28;20190;-76
2021/11/25 08:17:16;;;;;;;0.88;0.88;;;;;;;;;;5028699;28;20218;-75
2021/11/25 08:19:45;;;;;;;0.80;0.70;;;;;;;;;;5031694;28;20209;-76
2021/11/25 08:22:13;;;;;;;0.80;0.60;;;;;;;;;;5036618;28;20182;-75
2021/11/25 08:24:39;;;;;;;1.80;1.67;;;;;;;;;;5031086;28;20181;-75
2021/11/25 08:32:10;;;;;;;2.08;1.98;;;;;;;;;;5068635;28;20259;-76
2021/11/25 08:34:37;;;;;;;1.70;1.40;;;;;;;;;;5069743;28;20180;-73
2021/11/25 08:37:03;;;;;;;1.30;1.20;;;;;;;;;;5068001;28;20222;-73
2021/11/25 08:39:29;;;;;;;0.95;0.88;;;;;;;;;;5070546;28;20173;-73
2021/11/25 08:41:55;;;;;;;0.80;0.80;;;;;;;;;;5070535;28;20601;-76
2021/11/25 08:44:21;;;;;;;0.93;0.85;;;;;;;;;;5071533;28;20651;-76
2021/11/25 08:46:47;;;;;;;1.75;1.65;;;;;;;;;;5051890;28;20275;-76
2021/11/25 08:49:13;;;;;;;0.77;0.60;;;;;;;;;;5070491;28;20209;-75
2021/11/25 08:51:39;;;;;;;0.80;0.73;;;;;;;;;;5070043;28;20189;-76
2021/11/25 08:54:06;;;;;;;1.70;1.60;;;;;;;;;;5068201;28;20180;-75
2021/11/25 08:56:32;;;;;;;2.28;2.17;;;;;;;;;;5068941;28;20204;-76
2021/11/25 08:58:58;;;;;;;4.10;1.05;;;;;;;;;;5052357;28;20294;-76
2021/11/25 09:01:25;;;;;;;1.27;1.17;;;;;;;;;;5070284;28;20198;-76
2021/11/25 09:03:52;;;;;;;0.80;0.70;;;;;;;;;;5071282;28;20199;-76
2021/11/25 09:06:18;;;;;;;0.77;0.60;;;;;;;;;;5068708;28;20270;-76
2021/11/25 09:08:44;;;;;;;3.40;2.83;;;;;;;;;;5069092;28;20661;-76
2021/11/25 09:11:10;;;;;;;2.05;1.95;;;;;;;;;;5052708;28;20838;-76
2021/11/25 09:13:36;;;;;;;0.80;0.80;;;;;;;;;;5052694;28;20212;-76
2021/11/25 09:16:03;;;;;;;0.73;0.60;;;;;;;;;;5056224;28;20629;-76
2021/11/25 09:18:29;;;;;;;1.00;1.00;;;;;;;;;;5057061;28;20196;-76
2021/11/25 09:20:55;;;;;;;1.90;1.70;;;;;;;;;;5054763;28;20181;-76
2021/11/25 09:23:21;;;;;;;0.70;0.60;;;;;;;;;;5059113;28;20189;-76
2021/11/25 09:25:50;;;;;;;0.85;0.85;;;;;;;;;;5059477;28;20190;-76
2021/11/25 09:28:21;;;;;;;1.80;1.70;;;;;;;;;;5072824;28;20208;-76
2021/11/25 09:30:47;;;;;;;0.95;0.95;;;;;;;;;;5074621;28;20220;-73
2021/11/25 09:33:14;;;;;;;1.20;1.10;;;;;;;;;;5072651;28;20185;-75
2021/11/25 09:35:40;;;;;;;0.80;0.80;;;;;;;;;;5073123;28;20698;-76
2021/11/25 09:38:07;;;;;;;1.25;1.25;;;;;;;;;;5070344;28;20203;-76
2021/11/25 09:40:33;;;;;;;1.35;1.25;;;;;;;;;;5073796;28;20303;-75
2021/11/25 09:43:06;;;;;;;1.65;1.58;;;;;;;;;;5072866;28;20184;-76
2021/11/25 09:45:35;;;;;;;0.70;0.70;;;;;;;;;;5073589;28;20536;-75
2021/11/25 09:48:02;;;;;;;1.52;1.42;;;;;;;;;;5071289;28;20197;-76
2021/11/25 09:50:30;;;;;;;2.45;1.02;;;;;;;;;;5070530;28;20540;-75
2021/11/25 09:52:57;;;;;;;1.10;1.10;;;;;;;;;;5074045;28;20172;-75
2021/11/25 09:55:23;;;;;;;2.00;1.70;;;;;;;;;;5050624;28;20176;-75
2021/11/25 09:57:51;;;;;;;7.72;1.65;;;;;;;;;;5072493;28;20233;-76
2021/11/25 10:00:18;;;;;;;0.70;0.60;;;;;;;;;;5073908;28;20176;-76
2021/11/25 10:02:44;;;;;;;0.93;0.93;;;;;;;;;;5073441;28;20633;-75
2021/11/25 10:05:10;;;;;;;2.93;1.83;;;;;;;;;;5071366;28;20215;-75
2021/11/25 10:07:37;;;;;;;1.35;1.25;;;;;;;;;;5071644;28;20567;-75
2021/11/25 10:10:24;;;;;;;1.35;1.20;;;;;;;;;;5072996;28;20438;-75
2021/11/25 10:12:50;;;;;;;3.65;3.28;;;;;;;;;;5072995;28;20179;-75
2021/11/25 10:15:29;;;;;;;0.73;0.70;;;;;;;;;;5073809;28;20165;-76
2021/11/25 10:17:58;;;;;;;0.70;0.63;;;;;;;;;;5073229;28;20258;-75
2021/11/25 10:20:27;;;;;;;0.80;0.80;;;;;;;;;;5073983;28;20169;-75
2021/11/25 10:23:02;;;;;;;1.55;1.15;;;;;;;;;;5065205;28;20208;-75
2021/11/25 10:25:48;;;;;;;0.70;0.70;;;;;;;;;;5070112;28;20179;-75
2021/11/25 10:28:18;;;;;;;0.70;0.60;;;;;;;;;;5073441;28;20245;-74
2021/11/25 10:30:45;;;;;;;1.02;1.02;;;;;;;;;;5069943;28;20644;-75
2021/11/25 10:33:10;;;;;;;1.63;1.00;;;;;;;;;;5073132;28;20241;-75
2021/11/25 10:40:44;;;;;;;1.58;1.48;;;;;;;;;;5072326;28;20192;-75
2021/11/25 10:43:25;;;;;;;1.42;1.35;;;;;;;;;;5072222;28;20226;-76
2021/11/25 10:45:53;;;;;;;2.45;2.25;;;;;;;;;;5072758;28;20639;-76
2021/11/25 10:48:42;;;;;;;1.17;1.17;;;;;;;;;;5072399;28;20212;-76
2021/11/25 10:51:27;;;;;;;0.70;0.70;;;;;;;;;;5073421;28;20589;-76
2021/11/25 10:54:02;;;;;;;0.80;0.80;;;;;;;;;;5070924;28;20219;-76
2021/11/25 10:56:43;;;;;;;2.95;2.75;;;;;;;;;;5060018;28;20208;-76
2021/11/25 10:59:11;;;;;;;3.00;1.45;;;;;;;;;;5072927;28;20214;-76
2021/11/25 11:01:39;;;;;;;1.55;1.45;;;;;;;;;;5073301;28;20168;-76
2021/11/25 11:04:05;;;;;;;0.93;0.93;;;;;;;;;;5073062;28;20259;-77
2021/11/25 11:06:33;;;;;;;1.27;1.17;;;;;;;;;;5076192;28;20529;-76
2021/11/25 11:08:59;;;;;;;4.93;1.73;;;;;;;;;;5084389;28;20678;-76
2021/11/25 11:11:25;;;;;;;1.52;1.42;;;;;;;;;;5093191;28;20233;-76
2021/11/25 11:14:14;;;;;;;3.67;2.40;;;;;;;;;;5074898;28;20191;-76
2021/11/25 11:16:47;;;;;;;1.20;1.10;;;;;;;;;;5071978;28;20192;-75
2021/11/25 11:19:15;;;;;;;5.63;3.15;;;;;;;;;;5070967;28;20197;-75
2021/11/25 11:21:42;;;;;;;0.80;0.80;;;;;;;;;;5072536;28;20214;-75
2021/11/25 11:24:10;;;;;;;0.63;0.63;;;;;;;;;;5068735;28;20173;-75
2021/11/25 11:26:40;;;;;;;1.00;1.00;;;;;;;;;;5070556;28;20185;-75
2021/11/25 11:29:06;;;;;;;0.80;0.80;;;;;;;;;;5072359;28;20572;-75
2021/11/25 11:31:33;;;;;;;5.20;2.53;;;;;;;;;;5072513;28;20193;-75
2021/11/25 11:34:00;;;;;;;1.65;1.55;;;;;;;;;;5072201;28;20185;-76
2021/11/25 11:36:26;;;;;;;1.10;1.08;;;;;;;;;;5074433;28;20203;-75
2021/11/25 11:38:52;;;;;;;7.68;3.10;;;;;;;;;;5084108;28;20192;-75
2021/11/25 11:41:19;;;;;;;1.27;1.17;;;;;;;;;;5092461;28;20167;-76
2021/11/25 11:43:45;;;;;;;3.70;1.83;;;;;;;;;;5073202;28;20184;-75
2021/11/25 11:46:11;;;;;;;0.60;0.60;;;;;;;;;;5071607;28;20192;-75
2021/11/25 11:48:37;;;;;;;1.25;1.15;;;;;;;;;;5072142;28;20204;-76
2021/11/25 11:51:12;;;;;;;1.98;1.10;;;;;;;;;;5053665;28;20288;-76
2021/11/25 11:53:39;;;;;;;1.55;1.45;;;;;;;;;;5068631;28;20318;-75
2021/11/25 11:56:06;;;;;;;1.10;1.00;;;;;;;;;;5064347;28;20197;-75
2021/11/25 11:58:35;;;;;;;1.70;1.60;;;;;;;;;;5066042;28;20667;-76
2021/11/25 12:01:06;;;;;;;1.10;1.00;;;;;;;;;;5071396;28;20548;-75
2021/11/25 12:03:51;;;;;;;1.00;1.00;;;;;;;;;;5052067;28;20237;-74
2021/11/25 12:06:29;;;;;;;2.45;2.25;;;;;;;;;;5062301;28;20177;-75
2021/11/25 12:08:55;;;;;;;1.02;1.02;;;;;;;;;;5078692;28;20250;-75
2021/11/25 12:11:21;;;;;;;1.60;1.50;;;;;;;;;;5071992;28;20173;-75
2021/11/25 12:13:59;;;;;;;0.60;0.60;;;;;;;;;;5053981;28;20263;-74
2021/11/25 12:16:27;;;;;;;1.50;0.90;;;;;;;;;;5071384;28;20852;-75
2021/11/25 12:18:53;;;;;;;3.90;3.63;;;;;;;;;;5072316;28;20634;-75
2021/11/25 12:21:32;;;;;;;1.87;1.77;;;;;;;;;;5072021;28;20172;-75
2021/11/25 12:24:09;;;;;;;0.60;0.60;;;;;;;;;;5071445;28;20433;-74
2021/11/25 12:27:04;;;;;;;0.90;0.90;;;;;;;;;;5070816;28;20180;-74
2021/11/25 12:29:32;;;;;;;1.67;1.58;;;;;;;;;;5042055;28;20185;-75
2021/11/25 12:32:27;;;;;;;3.55;3.45;;;;;;;;;;5070266;28;20719;-75
2021/11/25 12:34:54;;;;;;;1.08;1.08;;;;;;;;;;5053898;28;20554;-75
2021/11/25 12:37:38;;;;;;;0.70;0.70;;;;;;;;;;5078249;28;20201;-75
2021/11/25 12:40:04;;;;;;;1.48;1.38;;;;;;;;;;5089061;28;20172;-75
2021/11/25 12:42:30;;;;;;;1.10;1.10;;;;;;;;;;5091897;28;20595;-75
2021/11/25 12:44:56;;;;;;;2.37;2.27;;;;;;;;;;5084166;28;20173;-75
2021/11/25 12:47:22;;;;;;;2.70;2.50;;;;;;;;;;5072849;28;20475;-75
2021/11/25 12:49:48;;;;;;;1.10;1.10;;;;;;;;;;5075495;28;20423;-75
2021/11/25 12:52:27;;;;;;;2.20;2.08;;;;;;;;;;5075507;28;20411;-75
2021/11/25 12:55:06;;;;;;;1.00;1.00;;;;;;;;;;5075461;28;20183;-75
2021/11/25 12:58:08;;;;;;;3.67;3.08;;;;;;;;;;5074006;28;20211;-75
2021/11/25 13:00:36;;;;;;;0.90;0.90;;;;;;;;;;4974398;28;20275;-77
2021/11/25 13:03:02;;;;;;;0.60;0.60;;;;;;;;;;5046310;28;20615;-76
2021/11/25 13:05:28;;;;;;;1.67;1.58;;;;;;;;;;5056393;28;20218;-76
2021/11/25 13:07:54;;;;;;;1.33;1.33;;;;;;;;;;5082501;28;20212;-76
2021/11/25 13:10:27;;;;;;;2.25;2.15;;;;;;;;;;5095150;28;20642;-75
2021/11/25 13:13:13;;;;;;;1.13;1.13;;;;;;;;;;5095342;28;20695;-76
2021/11/25 13:15:40;;;;;;;1.95;1.85;;;;;;;;;;5082617;28;20226;-76
2021/11/25 13:18:07;;;;;;;2.17;2.05;;;;;;;;;;5074536;28;20205;-76
2021/11/25 13:20:45;;;;;;;1.75;1.65;;;;;;;;;;5074032;28;20189;-76
2021/11/25 13:23:13;;;;;;;0.85;0.85;;;;;;;;;;5073030;28;20667;-76
2021/11/25 13:25:47;;;;;;;1.83;1.55;;;;;;;;;;5074824;28;20177;-76
2021/11/25 13:28:20;;;;;;;2.28;1.20;;;;;;;;;;5074511;28;20180;-76
2021/11/25 13:30:46;;;;;;;5.57;2.13;;;;;;;;;;5074709;28;20193;-76
2021/11/25 13:33:12;;;;;;;2.03;1.92;;;;;;;;;;5074819;28;20183;-75
2021/11/25 13:35:38;;;;;;;1.00;1.00;;;;;;;;;;5074630;28;20176;-76
2021/11/25 13:38:04;;;;;;;2.45;1.00;;;;;;;;;;5082356;28;20462;-75
2021/11/25 13:40:30;;;;;;;1.25;1.15;;;;;;;;;;5084636;28;20168;-76
2021/11/25 13:43:03;;;;;;;1.08;1.02;;;;;;;;;;5074665;28;20177;-76
2021/11/25 13:45:32;;;;;;;2.42;1.33;;;;;;;;;;5073581;28;20177;-75
2021/11/25 13:47:59;;;;;;;0.82;0.82;;;;;;;;;;5073471;28;20639;-76
2021/11/25 13:50:25;;;;;;;1.42;1.33;;;;;;;;;;5063944;28;20644;-76
2021/11/25 13:53:00;;;;;;;1.88;1.60;;;;;;;;;;5062289;28;20173;-76
2021/11/25 13:55:28;;;;;;;1.65;1.55;;;;;;;;;;5074513;28;20548;-76
2021/11/25 13:57:57;;;;;;;1.23;1.23;;;;;;;;;;5059082;28;20281;-76
2021/11/25 14:00:26;;;;;;;0.70;0.70;;;;;;;;;;5054402;28;20170;-75
2021/11/25 14:02:52;;;;;;;0.75;0.75;;;;;;;;;;5056275;28;20170;-76
2021/11/25 14:05:18;;;;;;;1.90;1.80;;;;;;;;;;5074131;28;20204;-75
2021/11/25 14:07:45;;;;;;;1.23;1.23;;;;;;;;;;5073185;28;20591;-76
2021/11/25 14:10:13;;;;;;;2.65;2.55;;;;;;;;;;5077568;28;20266;-76
2021/11/25 14:12:40;;;;;;;1.85;1.17;;;;;;;;;;5073902;28;20184;-76
2021/11/25 14:15:07;;;;;;;2.90;2.70;;;;;;;;;;5074248;28;20203;-76
2021/11/25 14:17:33;;;;;;;0.70;0.70;;;;;;;;;;5073022;28;20209;-76
2021/11/25 14:19:59;;;;;;;3.67;1.42;;;;;;;;;;5053889;28;20174;-75
2021/11/25 14:22:27;;;;;;;2.35;1.50;;;;;;;;;;5053797;28;20170;-76
2021/11/25 14:24:56;;;;;;;3.50;2.55;;;;;;;;;;5054041;28;20170;-75
2021/11/25 14:30:15;;;;;;;3.53;2.97;;;;;;;;;;5062898;22;20271;-73
2021/11/25 14:32:46;;;;;;;1.17;1.10;;;;;;;;;;5033281;28;20180;-73
2021/11/25 14:35:25;;;;;;;0.82;0.82;;;;;;;;;;5015900;28;20182;-73
2021/11/25 14:38:11;;;;;;;1.02;0.93;;;;;;;;;;5041661;28;20216;-73
2021/11/25 14:40:38;;;;;;;0.68;0.68;;;;;;;;;;5013402;28;20190;-73
2021/11/25 14:43:12;;;;;;;1.90;1.80;;;;;;;;;;5014121;28;20205;-73
2021/11/25 14:45:39;;;;;;;0.90;0.90;;;;;;;;;;5013449;28;20203;-73
2021/11/25 14:48:27;;;;;;;1.35;0.93;;;;;;;;;;5012698;28;20582;-73
2021/11/25 14:50:57;;;;;;;2.55;1.73;;;;;;;;;;5012799;28;20175;-73
2021/11/25 14:53:23;;;;;;;1.98;1.88;;;;;;;;;;5013476;28;20187;-73
2021/11/25 14:55:54;;;;;;;1.25;1.25;;;;;;;;;;5012831;28;20198;-72
2021/11/25 14:58:20;;;;;;;3.70;3.50;;;;;;;;;;5012606;28;20191;-73
2021/11/25 15:00:47;;;;;;;1.35;1.27;;;;;;;;;;5025989;28;20244;-73
2021/11/25 15:03:13;;;;;;;4.22;1.85;;;;;;;;;;5014773;28;20178;-73
2021/11/25 15:05:44;;;;;;;1.67;1.58;;;;;;;;;;5013413;28;20186;-74